Latest Coastal Weather Observations for Larapuna (Eddystone Point)

IDT60701

Issued at 7:32 pm EST Wednesday 6 May 2026 (issued every 10 minutes, with the page automatically refreshed every 10 minutes)

About coastal observations | Map of coastal stations | Coastal observations for TAS | Marine services | Other Formats
Station Details ID: 092045 Name: LARAPUNA (EDDYSTONE POINT) Lat: -40.99 Lon: 148.35 Height: 19.7 m
Data from the previous 72 hours. | See also: Recent months at Larapuna (Eddystone Point)
Date/Time
EST
Wind Sea
Height
m
Swell Vis
km
Cloud Weather Temp
°C
Press
MSL
hPa
Rain since
9am
mm
Dir  Spd
kts
Gust
kts
Height
m
Period
s
Dir
06/07:30pm NW 21 31 - - - - - - - 14.4 1007.0 2.4
06/07:28pm NW 21 31 - - - - - - - 14.3 1007.1 2.4
06/07:00pm NW 25 32 - - - - - - - 14.4 1007.3 2.4
06/06:48pm NW 22 34 - - - - - - - 14.4 1007.5 2.4
06/06:30pm NW 20 27 - - - - - - - 14.3 1007.8 2.4
06/06:00pm NW 21 28 - - - - - - - 14.1 1007.8 2.4
06/05:30pm NW 18 23 - - - - - - - 13.8 1008.2 2.4
06/05:00pm NW 20 26 - - - - - - - 13.5 1008.3 2.4
06/04:30pm NW 18 27 - - - - - - - 13.2 1008.9 2.4
06/04:05pm WNW 20 30 - - - - - - - 13.4 1009.5 2.4
06/04:00pm NW 22 31 - - - - - - - 13.6 1009.5 2.4
06/03:35pm NW 22 34 - - - - - - - 15.0 1009.4 2.0
06/03:30pm NNW 23 31 - - - - - - - 15.4 1009.3 2.0
06/03:03pm NNW 22 33 - - - - - - - 15.4 1009.7 2.0
06/03:00pm NNW 22 29 - - - - - - - 15.5 1009.8 2.0
06/02:30pm NW 21 31 - - - - - - - 15.4 1010.3 2.0
06/02:26pm NW 21 31 - - - - - - - 15.6 1010.3 2.0
06/02:00pm NNW 19 26 - - - - - - - 15.2 1010.7 2.0
06/01:57pm NW 19 29 - - - - - - - 15.4 1010.7 2.0
06/01:30pm NW 18 27 - - - - - - - 15.0 1011.3 2.0
06/01:00pm NW 20 26 - - - - - - - 14.2 1012.0 1.8
06/12:30pm NW 20 28 - - - - - - - 14.3 1012.6 1.6
06/12:00pm NW 17 25 - - - - - - - 15.4 1012.9 0.8
06/11:30am NW 16 22 - - - - - - - 14.4 1013.4 0.8
06/11:00am WNW 18 29 - - - - - - - 14.1 1014.0 0.8
06/10:30am WNW 18 29 - - - - - - - 16.2 1014.1 0.0
06/10:27am NW 18 29 - - - - - - - 16.4 1014.1 0.0
06/10:00am NW 18 27 - - - - - - - 16.8 1014.5 0.0
06/09:40am NW 20 30 - - - - - - - 16.3 1014.6 0.0
06/09:30am NW 18 26 - - - - - - - 16.1 1014.8 0.0
06/09:01am WNW 16 26 - - - - - - - 14.7 1015.2 0.0
06/09:00am WNW 17 26 - - - - - - - 14.5 1015.3 0.0
06/08:44am WNW 17 30 - - - - - - - 15.1 1015.5 0.0
06/08:30am WNW 14 22 - - - - - - - 15.3 1015.4 0.0
06/08:00am NW 14 19 - - - - - - - 14.8 1015.5 0.0
06/07:30am NW 13 18 - - - - - - - 14.5 1015.4 0.0
06/07:00am NW 15 19 - - - - - - - 14.2 1015.4 0.0
06/06:30am NW 13 19 - - - - - - - 13.9 1015.4 0.0
06/06:00am NW 9 15 - - - - - - - 13.7 1015.4 0.0
06/05:30am NW 9 17 - - - - - - - 14.0 1015.6 0.0
06/05:00am NNW 11 15 - - - - - - - 14.0 1015.7 0.0
06/04:30am NW 11 14 - - - - - - - 13.9 1015.8 0.0
06/04:00am WNW 15 19 - - - - - - - 13.6 1015.7 0.0
06/03:30am WNW 19 23 - - - - - - - 13.3 1015.5 0.0
06/03:00am WNW 19 25 - - - - - - - 13.1 1015.7 0.0
06/02:30am WNW 15 24 - - - - - - - 12.7 1016.0 0.0
06/02:00am WNW 11 17 - - - - - - - 12.3 1016.6 0.0
06/01:30am WNW 13 18 - - - - - - - 12.3 1016.8 0.0
06/01:00am NW 14 19 - - - - - - - 12.1 1016.7 0.0
06/12:30am WNW 16 22 - - - - - - - 12.2 1016.4 0.0
06/12:07am WNW 18 31 - - - - - - - 12.5 1016.1 0.0
06/12:00am WNW 19 26 - - - - - - - 12.5 1016.1 0.0
 
Date/Time
EST
Wind Sea
Height
m
Swell Vis
km
Cloud Weather Temp
°C
Press
MSL
hPa
Rain since
9am
mm
Dir  Spd
kts
Gust
kts
Height
m
Period
s
Dir
05/11:36pm WNW 19 29 - - - - - - - 12.5 1015.9 0.0
05/11:30pm WNW 20 29 - - - - - - - 12.6 1015.8 0.0
05/11:09pm WNW 20 30 - - - - - - - 12.8 1015.8 0.0
05/11:00pm W 21 29 - - - - - - - 12.8 1015.9 0.0
05/10:37pm WNW 22 32 - - - - - - - 12.9 1015.9 0.0
05/10:30pm W 21 30 - - - - - - - 12.9 1015.9 0.0
05/10:17pm W 15 28 - - - - - - - 12.9 1016.3 0.0
05/10:00pm NW 7 12 - - - - - - - 12.7 1016.9 0.0
05/09:30pm WNW 15 21 - - - - - - - 12.7 1016.9 0.0
05/09:13pm WNW 15 25 - - - - - - - 12.7 1016.7 0.0
05/09:00pm WNW 17 23 - - - - - - - 12.8 1016.6 0.0
05/08:30pm W 17 24 - - - - - - - 13.1 1016.4 0.0
05/08:00pm WNW 14 19 - - - - - - - 13.0 1016.3 0.0
05/07:30pm WNW 14 19 - - - - - - - 13.4 1016.2 0.0
05/07:00pm WNW 12 16 - - - - - - - 13.5 1016.1 0.0
05/06:30pm WNW 13 17 - - - - - - - 13.8 1015.7 0.0
05/06:00pm WNW 14 18 - - - - - - - 14.1 1015.4 0.0
05/05:30pm WNW 12 17 - - - - - - - 14.6 1014.8 0.0
05/05:00pm WNW 14 19 - - - - - - - 15.4 1014.4 0.0
05/04:30pm WNW 13 18 - - - - - - - 16.6 1014.1 0.0
05/04:00pm WNW 12 16 - - - - - - - 17.5 1013.7 0.0
05/03:30pm WNW 13 17 - - - - - - - 18.1 1013.3 0.0
05/03:00pm WNW 13 17 - - - - - - - 18.6 1013.0 0.0
05/02:30pm NW 14 17 - - - - - - - 19.2 1012.5 0.0
05/02:00pm NW 14 19 - - - - - - - 19.5 1012.2 0.0
05/01:30pm WNW 9 15 - - - - - - - 19.6 1011.9 0.0
05/01:00pm WNW 8 13 - - - - - - - 19.9 1012.0 0.0
05/12:30pm WNW 9 11 - - - - - - - 18.8 1012.2 0.0
05/12:00pm WNW 7 11 - - - - - - - 19.1 1012.3 0.0
05/11:30am W 7 9 - - - - - - - 18.7 1012.2 0.0
05/11:00am WNW 7 9 - - - - - - - 18.0 1011.9 0.0
05/10:30am W 10 13 - - - - - - - 17.5 1011.7 0.0
05/10:00am W 6 10 - - - - - - - 17.0 1011.2 0.0
05/09:30am W 6 8 - - - - - - - 16.4 1010.8 0.0
05/09:00am WSW 7 10 - - - - - - - 15.6 1010.5 5.6
05/08:30am W 8 9 - - - - - - - 14.6 1010.4 5.6
05/08:00am SW 7 10 - - - - - - - 13.6 1009.8 5.6
05/07:30am SW 10 11 - - - - - - - 13.4 1009.3 5.6
05/07:00am SW 8 10 - - - - - - - 13.4 1008.9 5.6
05/06:30am SW 7 8 - - - - - - - 13.3 1008.4 5.6
05/06:00am SW 5 6 - - - - - - Recent precip. 13.3 1008.0 5.6
05/05:30am WNW 6 7 - - - - - - - 13.4 1007.6 5.6
05/05:00am WNW 5 7 - - - - - - - 13.7 1007.8 5.2
05/04:30am NW 8 14 - - - - - - - 13.9 1007.8 5.2
05/04:00am NNW 7 8 - - - - - - - 13.9 1007.7 5.0
05/03:30am NNW 15 24 - - - - - - - 14.0 1007.8 3.4
05/03:25am NNW 10 24 - - - - - - - 14.1 1007.9 1.2
05/03:00am NW 5 7 - - - - - - Recent precip. 13.1 1007.8 0.8
05/02:30am W 7 9 - - - - - - - 13.4 1008.3 0.2
05/02:00am WSW 8 9 - - - - - - - 14.4 1008.2 0.0
05/01:30am NW 13 17 - - - - - - - 15.9 1008.4 0.0
05/01:00am N 12 15 - - - - - - - 16.2 1008.6 0.0
05/12:30am N 10 13 - - - - - - - 16.1 1008.8 0.0
05/12:00am N 10 14 - - - - - - - 16.2 1009.1 0.0
 
Date/Time
EST
Wind Sea
Height
m
Swell Vis
km
Cloud Weather Temp
°C
Press
MSL
hPa
Rain since
9am
mm
Dir  Spd
kts
Gust
kts
Height
m
Period
s
Dir
04/11:30pm NNW 13 16 - - - - - - - 16.2 1009.2 0.0
04/11:00pm N 15 18 - - - - - - - 16.4 1009.4 0.0
04/10:30pm N 15 19 - - - - - - - 16.1 1009.6 0.0
04/10:00pm N 15 18 - - - - - - - 16.2 1009.8 0.0
04/09:30pm N 13 17 - - - - - - - 16.3 1010.0 0.0
04/09:00pm N 14 18 - - - - - - - 16.3 1010.0 0.0
04/08:30pm N 13 18 - - - - - - - 16.2 1009.8 0.0
04/08:00pm N 16 21 - - - - - - - 16.3 1009.8 0.0
04/07:30pm N 14 18 - - - - - - - 16.1 1009.8 0.0
04/07:00pm N 6 9 - - - - - - - 15.6 1010.0 0.0
04/06:30pm NNW 5 7 - - - - - - - 15.3 1009.9 0.0
04/06:00pm NNW 5 6 - - - - - - - 15.3 1009.8 0.0
04/05:30pm NW 5 6 - - - - - - - 15.9 1009.9 0.0
04/05:00pm NW 9 12 - - - - - - - 16.7 1009.8 0.0
04/04:30pm NNW 9 11 - - - - - - - 16.7 1009.5 0.0
04/04:00pm NNW 10 13 - - - - - - - 17.1 1009.4 0.0
04/03:30pm NNW 13 17 - - - - - - - 17.1 1009.4 0.0
04/03:00pm NNW 15 19 - - - - - - - 17.7 1009.5 0.0
04/02:30pm N 15 19 - - - - - - - 17.8 1009.4 0.0
04/02:00pm N 16 20 - - - - - - - 18.1 1009.3 0.0
04/01:30pm NNW 14 18 - - - - - - - 16.8 1009.6 0.0
04/01:00pm N 16 20 - - - - - - - 16.9 1009.8 0.0
04/12:30pm NNW 13 19 - - - - - - - 17.6 1010.2 0.0
04/12:00pm N 15 19 - - - - - - - 18.3 1010.7 0.0
04/11:30am N 16 19 - - - - - - - 18.6 1011.3 0.0
04/11:00am N 14 18 - - - - - - - 18.2 1011.6 0.0
04/10:30am NNW 12 16 - - - - - - - 18.0 1011.8 0.0
04/10:00am NW 12 17 - - - - - - - 17.2 1011.9 0.0
04/09:30am NNW 9 13 - - - - - - - 17.1 1011.8 0.0
04/09:00am NNW 7 9 - - - - - - - 16.5 1011.7 12.8
04/08:30am NNW 7 9 - - - - - - - 15.6 1011.7 12.8
04/08:00am NNW 7 8 - - - - - - - 14.9 1011.6 12.8
04/07:30am NW 6 8 - - - - - - - 13.7 1011.2 12.8
04/07:00am WNW 6 7 - - - - - - - 13.4 1011.0 12.8
04/06:30am NW 7 8 - - - - - - - 13.8 1010.8 12.8
04/06:00am NW 8 10 - - - - - - - 14.1 1010.5 12.8
04/05:30am NW 8 10 - - - - - - - 14.3 1010.3 12.8
04/05:00am NW 8 10 - - - - - - - 14.5 1010.2 12.8
04/04:30am NW 8 10 - - - - - - - 14.5 1010.3 12.8
04/04:00am NNW 9 13 - - - - - - - 14.8 1010.0 12.8
04/03:30am WNW 11 15 - - - - - - - 14.9 1010.0 12.8
04/03:00am NW 10 13 - - - - - - - 14.9 1009.8 12.8
04/02:30am NW 12 15 - - - - - - - 14.9 1010.0 12.8
04/02:00am NW 13 19 - - - - - - - 15.2 1010.5 12.8
04/01:30am NNW 13 17 - - - - - - - 16.1 1010.3 12.6
04/01:00am NNW 14 19 - - - - - - - 16.5 1010.4 11.4
04/12:30am N 12 14 - - - - - - - 16.6 1010.4 11.0
04/12:00am N 13 16 - - - - - - Rain 16.7 1010.9 10.4
 
Date/Time
EST
Wind Sea
Height
m
Swell Vis
km
Cloud Weather Temp
°C
Press
MSL
hPa
Rain since
9am
mm
Dir  Spd
kts
Gust
kts
Height
m
Period
s
Dir
03/11:30pm N 18 22 - - - - - - - 16.8 1011.1 8.8
03/11:00pm N 19 23 - - - - - - - 16.9 1011.5 7.4
03/10:30pm NNW 19 24 - - - - - - - 17.3 1012.1 4.4
03/10:00pm N 24 30 - - - - - - - 17.5 1011.7 3.6
03/09:30pm NNE 19 25 - - - - - - - 17.7 1011.2 3.4
03/09:24pm NNE 15 21 - - - - - - - 17.5 1011.1 3.4
03/09:00pm NE 8 10 - - - - - - Recent precip. 17.2 1011.0 3.4
03/08:30pm NNE 10 12 - - - - - - - 17.1 1011.3 3.2
03/08:00pm NNE 14 17 - - - - - - - 16.9 1011.6 3.2

Other formats

Comma delimited format used in spreadsheet applications
http://www.bom.gov.au/fwo/IDT60701/IDT60701.94983.axf

JavaScript Object Notation format (JSON) in row-major order
http://www.bom.gov.au/fwo/IDT60701/IDT60701.94983.json

Data quality

Most of these data are generated automatically and are frequently updated. Quality checks on data are not normally performed. It is possible for incorrect values to appear. Refer to information at About Latest Weather Observations and please check the disclaimer before using these data.